sensor_id;sensor_type;location;lat;lon;timestamp;temperature;humidity
53286;DHT22;39171;45.550;12.074;2023-03-21T00:00:35;18.00;65.10
53286;DHT22;39171;45.550;12.074;2023-03-21T00:06:37;18.00;65.50
53286;DHT22;39171;45.550;12.074;2023-03-21T00:12:38;18.00;66.00
53286;DHT22;39171;45.550;12.074;2023-03-21T00:18:43;18.00;65.70
53286;DHT22;39171;45.550;12.074;2023-03-21T00:24:46;18.00;65.80
53286;DHT22;39171;45.550;12.074;2023-03-21T00:30:47;17.90;65.70
53286;DHT22;39171;45.550;12.074;2023-03-21T00:36:49;17.90;65.70
53286;DHT22;39171;45.550;12.074;2023-03-21T00:42:50;17.80;65.50
53286;DHT22;39171;45.550;12.074;2023-03-21T00:48:52;17.80;65.80
53286;DHT22;39171;45.550;12.074;2023-03-21T00:54:53;17.80;65.60
53286;DHT22;39171;45.550;12.074;2023-03-21T01:00:54;17.70;65.90
53286;DHT22;39171;45.550;12.074;2023-03-21T01:06:56;17.70;65.80
53286;DHT22;39171;45.550;12.074;2023-03-21T01:12:57;17.70;66.10
53286;DHT22;39171;45.550;12.074;2023-03-21T01:18:58;17.70;66.10
53286;DHT22;39171;45.550;12.074;2023-03-21T01:25:00;17.70;66.60
53286;DHT22;39171;45.550;12.074;2023-03-21T01:31:02;17.60;66.40
53286;DHT22;39171;45.550;12.074;2023-03-21T01:37:04;17.60;66.40
53286;DHT22;39171;45.550;12.074;2023-03-21T01:49:31;17.60;66.50
53286;DHT22;39171;45.550;12.074;2023-03-21T01:55:45;17.50;66.50
53286;DHT22;39171;45.550;12.074;2023-03-21T02:02:06;17.60;66.50
53286;DHT22;39171;45.550;12.074;2023-03-21T02:08:18;17.50;66.40
53286;DHT22;39171;45.550;12.074;2023-03-21T02:14:22;17.50;66.70
53286;DHT22;39171;45.550;12.074;2023-03-21T02:32:48;17.40;67.30
53286;DHT22;39171;45.550;12.074;2023-03-21T02:44:58;17.30;66.60
53286;DHT22;39171;45.550;12.074;2023-03-21T02:51:02;17.30;66.60
53286;DHT22;39171;45.550;12.074;2023-03-21T02:57:05;17.30;67.20
53286;DHT22;39171;45.550;12.074;2023-03-21T03:03:06;17.30;67.10
53286;DHT22;39171;45.550;12.074;2023-03-21T03:15:39;17.20;66.70
53286;DHT22;39171;45.550;12.074;2023-03-21T03:21:50;17.20;66.70
53286;DHT22;39171;45.550;12.074;2023-03-21T03:27:55;17.10;67.30
53286;DHT22;39171;45.550;12.074;2023-03-21T03:33:59;17.10;67.10
53286;DHT22;39171;45.550;12.074;2023-03-21T03:46:10;17.00;66.90
53286;DHT22;39171;45.550;12.074;2023-03-21T03:52:33;17.00;66.90
53286;DHT22;39171;45.550;12.074;2023-03-21T03:58:42;17.00;67.10
53286;DHT22;39171;45.550;12.074;2023-03-21T04:04:44;17.00;67.20
53286;DHT22;39171;45.550;12.074;2023-03-21T04:10:46;17.00;67.10
53286;DHT22;39171;45.550;12.074;2023-03-21T04:16:48;16.90;67.10
53286;DHT22;39171;45.550;12.074;2023-03-21T04:22:50;16.90;67.00
53286;DHT22;39171;45.550;12.074;2023-03-21T04:28:52;16.80;67.00
53286;DHT22;39171;45.550;12.074;2023-03-21T04:34:56;16.80;67.10
53286;DHT22;39171;45.550;12.074;2023-03-21T04:40:59;16.70;67.10
53286;DHT22;39171;45.550;12.074;2023-03-21T04:47:02;16.70;67.20
53286;DHT22;39171;45.550;12.074;2023-03-21T04:53:03;16.70;67.10
53286;DHT22;39171;45.550;12.074;2023-03-21T04:59:06;16.70;67.30
53286;DHT22;39171;45.550;12.074;2023-03-21T05:05:08;16.70;67.30
53286;DHT22;39171;45.550;12.074;2023-03-21T05:11:11;16.60;67.30
53286;DHT22;39171;45.550;12.074;2023-03-21T05:23:43;16.50;67.40
53286;DHT22;39171;45.550;12.074;2023-03-21T05:29:44;16.50;67.50
53286;DHT22;39171;45.550;12.074;2023-03-21T05:35:48;16.40;67.70
53286;DHT22;39171;45.550;12.074;2023-03-21T05:41:50;16.50;67.80
53286;DHT22;39171;45.550;12.074;2023-03-21T05:47:51;16.40;67.70
53286;DHT22;39171;45.550;12.074;2023-03-21T05:53:57;16.40;67.90
53286;DHT22;39171;45.550;12.074;2023-03-21T05:59:58;16.40;67.80
53286;DHT22;39171;45.550;12.074;2023-03-21T06:06:01;16.40;67.90
53286;DHT22;39171;45.550;12.074;2023-03-21T06:12:09;16.30;67.90
53286;DHT22;39171;45.550;12.074;2023-03-21T06:18:46;16.30;68.00
53286;DHT22;39171;45.550;12.074;2023-03-21T06:25:02;16.30;67.90
53286;DHT22;39171;45.550;12.074;2023-03-21T06:31:04;16.30;68.00
53286;DHT22;39171;45.550;12.074;2023-03-21T06:37:07;16.20;68.00
53286;DHT22;39171;45.550;12.074;2023-03-21T06:43:10;16.30;68.00
53286;DHT22;39171;45.550;12.074;2023-03-21T06:49:12;16.20;68.10
53286;DHT22;39171;45.550;12.074;2023-03-21T06:55:13;16.20;68.10
53286;DHT22;39171;45.550;12.074;2023-03-21T07:01:15;16.20;68.10
53286;DHT22;39171;45.550;12.074;2023-03-21T07:07:27;16.20;68.10
53286;DHT22;39171;45.550;12.074;2023-03-21T07:13:30;16.20;68.20
53286;DHT22;39171;45.550;12.074;2023-03-21T07:19:37;16.20;68.50
53286;DHT22;39171;45.550;12.074;2023-03-21T07:25:39;16.20;68.60
53286;DHT22;39171;45.550;12.074;2023-03-21T07:31:40;16.30;68.40
53286;DHT22;39171;45.550;12.074;2023-03-21T07:37:41;16.60;67.50
53286;DHT22;39171;45.550;12.074;2023-03-21T07:43:42;16.90;66.90
53286;DHT22;39171;45.550;12.074;2023-03-21T07:49:44;17.20;66.40
53286;DHT22;39171;45.550;12.074;2023-03-21T07:55:51;17.50;65.80
53286;DHT22;39171;45.550;12.074;2023-03-21T08:01:53;17.80;65.40
53286;DHT22;39171;45.550;12.074;2023-03-21T08:07:54;18.00;65.20
53286;DHT22;39171;45.550;12.074;2023-03-21T08:13:56;18.20;64.70
53286;DHT22;39171;45.550;12.074;2023-03-21T08:19:58;18.30;64.60
53286;DHT22;39171;45.550;12.074;2023-03-21T08:25:59;18.50;64.20
53286;DHT22;39171;45.550;12.074;2023-03-21T08:32:01;18.70;64.10
53286;DHT22;39171;45.550;12.074;2023-03-21T08:38:02;18.70;63.80
53286;DHT22;39171;45.550;12.074;2023-03-21T08:44:04;18.90;63.50
53286;DHT22;39171;45.550;12.074;2023-03-21T08:50:06;19.00;63.20
53286;DHT22;39171;45.550;12.074;2023-03-21T08:56:10;19.10;63.10
53286;DHT22;39171;45.550;12.074;2023-03-21T09:02:12;19.20;62.80
53286;DHT22;39171;45.550;12.074;2023-03-21T09:08:13;19.30;62.50
53286;DHT22;39171;45.550;12.074;2023-03-21T09:14:15;19.30;62.40
53286;DHT22;39171;45.550;12.074;2023-03-21T09:20:17;19.30;62.10
53286;DHT22;39171;45.550;12.074;2023-03-21T09:26:18;19.40;61.80
53286;DHT22;39171;45.550;12.074;2023-03-21T09:32:19;19.40;61.70
53286;DHT22;39171;45.550;12.074;2023-03-21T09:38:21;19.40;61.50
53286;DHT22;39171;45.550;12.074;2023-03-21T09:44:26;19.40;61.70
53286;DHT22;39171;45.550;12.074;2023-03-21T09:50:33;19.50;61.30
53286;DHT22;39171;45.550;12.074;2023-03-21T09:56:36;19.50;61.20
53286;DHT22;39171;45.550;12.074;2023-03-21T10:08:40;19.50;60.80
53286;DHT22;39171;45.550;12.074;2023-03-21T10:14:43;19.40;60.50
53286;DHT22;39171;45.550;12.074;2023-03-21T10:20:46;19.50;60.50
53286;DHT22;39171;45.550;12.074;2023-03-21T10:26:48;19.50;60.40
53286;DHT22;39171;45.550;12.074;2023-03-21T10:32:50;19.50;60.10
53286;DHT22;39171;45.550;12.074;2023-03-21T10:44:58;19.50;59.80
53286;DHT22;39171;45.550;12.074;2023-03-21T10:50:59;19.60;59.60
53286;DHT22;39171;45.550;12.074;2023-03-21T10:57:08;19.50;59.50
53286;DHT22;39171;45.550;12.074;2023-03-21T11:03:29;19.60;59.40
53286;DHT22;39171;45.550;12.074;2023-03-21T11:15:55;19.60;59.10
53286;DHT22;39171;45.550;12.074;2023-03-21T11:22:02;19.60;59.00
53286;DHT22;39171;45.550;12.074;2023-03-21T11:28:06;19.60;59.10
53286;DHT22;39171;45.550;12.074;2023-03-21T11:34:08;19.60;58.90
53286;DHT22;39171;45.550;12.074;2023-03-21T11:46:27;19.60;58.50
53286;DHT22;39171;45.550;12.074;2023-03-21T11:52:37;19.60;59.70
53286;DHT22;39171;45.550;12.074;2023-03-21T12:17:47;19.50;58.50
53286;DHT22;39171;45.550;12.074;2023-03-21T12:24:10;19.60;58.30
53286;DHT22;39171;45.550;12.074;2023-03-21T13:01:26;19.60;57.50
53286;DHT22;39171;45.550;12.074;2023-03-21T13:07:29;19.70;57.50
53286;DHT22;39171;45.550;12.074;2023-03-21T13:13:38;19.70;57.40
53286;DHT22;39171;45.550;12.074;2023-03-21T13:19:49;19.70;57.30
53286;DHT22;39171;45.550;12.074;2023-03-21T13:25:52;19.70;57.30
53286;DHT22;39171;45.550;12.074;2023-03-21T13:31:56;19.70;57.00
53286;DHT22;39171;45.550;12.074;2023-03-21T13:38:13;19.70;56.60
53286;DHT22;39171;45.550;12.074;2023-03-21T13:44:24;19.70;56.60
53286;DHT22;39171;45.550;12.074;2023-03-21T13:50:29;19.70;56.40
53286;DHT22;39171;45.550;12.074;2023-03-21T14:03:05;19.60;56.20
53286;DHT22;39171;45.550;12.074;2023-03-21T14:09:08;19.60;56.30
53286;DHT22;39171;45.550;12.074;2023-03-21T14:15:14;19.60;56.20
53286;DHT22;39171;45.550;12.074;2023-03-21T14:21:21;19.70;56.30
53286;DHT22;39171;45.550;12.074;2023-03-21T14:27:23;19.70;56.10
53286;DHT22;39171;45.550;12.074;2023-03-21T14:39:30;19.70;56.00
53286;DHT22;39171;45.550;12.074;2023-03-21T14:45:33;19.70;56.00
53286;DHT22;39171;45.550;12.074;2023-03-21T14:51:35;19.60;55.90
53286;DHT22;39171;45.550;12.074;2023-03-21T14:57:36;19.60;55.80
53286;DHT22;39171;45.550;12.074;2023-03-21T15:03:37;19.50;55.60
53286;DHT22;39171;45.550;12.074;2023-03-21T15:09:39;19.50;55.50
53286;DHT22;39171;45.550;12.074;2023-03-21T15:15:40;19.50;55.30
53286;DHT22;39171;45.550;12.074;2023-03-21T15:21:43;19.50;55.40
53286;DHT22;39171;45.550;12.074;2023-03-21T15:27:45;19.50;55.60
53286;DHT22;39171;45.550;12.074;2023-03-21T15:33:49;19.40;55.40
53286;DHT22;39171;45.550;12.074;2023-03-21T15:39:51;19.40;55.30
53286;DHT22;39171;45.550;12.074;2023-03-21T15:45:55;19.40;55.40
53286;DHT22;39171;45.550;12.074;2023-03-21T15:52:00;19.30;55.40
53286;DHT22;39171;45.550;12.074;2023-03-21T15:58:07;19.30;55.40
53286;DHT22;39171;45.550;12.074;2023-03-21T16:04:13;19.30;55.30
53286;DHT22;39171;45.550;12.074;2023-03-21T16:10:30;19.20;55.30
53286;DHT22;39171;45.550;12.074;2023-03-21T16:16:32;19.20;55.20
53286;DHT22;39171;45.550;12.074;2023-03-21T16:22:33;19.20;55.30
53286;DHT22;39171;45.550;12.074;2023-03-21T16:28:35;19.20;55.30
53286;DHT22;39171;45.550;12.074;2023-03-21T16:34:36;19.20;55.30
53286;DHT22;39171;45.550;12.074;2023-03-21T16:40:38;19.20;55.20
53286;DHT22;39171;45.550;12.074;2023-03-21T16:46:40;19.20;55.20
53286;DHT22;39171;45.550;12.074;2023-03-21T16:52:41;19.10;55.20
53286;DHT22;39171;45.550;12.074;2023-03-21T16:58:43;19.10;55.20
53286;DHT22;39171;45.550;12.074;2023-03-21T17:04:44;19.10;55.30
53286;DHT22;39171;45.550;12.074;2023-03-21T17:10:46;19.10;55.30
53286;DHT22;39171;45.550;12.074;2023-03-21T17:16:47;19.10;55.40
53286;DHT22;39171;45.550;12.074;2023-03-21T17:22:48;19.10;55.40
53286;DHT22;39171;45.550;12.074;2023-03-21T17:28:50;19.10;55.40
53286;DHT22;39171;45.550;12.074;2023-03-21T17:34:51;19.10;55.50
53286;DHT22;39171;45.550;12.074;2023-03-21T17:40:53;19.00;55.50
53286;DHT22;39171;45.550;12.074;2023-03-21T17:46:54;19.00;55.50
53286;DHT22;39171;45.550;12.074;2023-03-21T17:52:55;19.00;55.50
53286;DHT22;39171;45.550;12.074;2023-03-21T17:58:58;19.00;55.60
53286;DHT22;39171;45.550;12.074;2023-03-21T18:05:00;19.00;55.70
53286;DHT22;39171;45.550;12.074;2023-03-21T18:11:01;18.90;55.80
53286;DHT22;39171;45.550;12.074;2023-03-21T18:17:02;18.90;56.00
53286;DHT22;39171;45.550;12.074;2023-03-21T18:23:03;18.90;56.30
53286;DHT22;39171;45.550;12.074;2023-03-21T18:29:04;18.90;56.70
53286;DHT22;39171;45.550;12.074;2023-03-21T18:35:06;18.90;57.00
53286;DHT22;39171;45.550;12.074;2023-03-21T18:41:08;18.80;57.00
53286;DHT22;39171;45.550;12.074;2023-03-21T18:47:09;18.80;57.50
53286;DHT22;39171;45.550;12.074;2023-03-21T18:53:10;18.80;57.70
53286;DHT22;39171;45.550;12.074;2023-03-21T18:59:11;18.70;58.10
53286;DHT22;39171;45.550;12.074;2023-03-21T19:05:14;18.70;58.30
53286;DHT22;39171;45.550;12.074;2023-03-21T19:11:16;18.70;58.50
53286;DHT22;39171;45.550;12.074;2023-03-21T19:17:21;18.70;58.60
53286;DHT22;39171;45.550;12.074;2023-03-21T19:23:22;18.70;59.10
53286;DHT22;39171;45.550;12.074;2023-03-21T19:29:23;18.70;59.20
53286;DHT22;39171;45.550;12.074;2023-03-21T19:35:25;18.70;59.40
53286;DHT22;39171;45.550;12.074;2023-03-21T19:41:26;18.70;59.40
53286;DHT22;39171;45.550;12.074;2023-03-21T19:47:28;18.60;59.50
53286;DHT22;39171;45.550;12.074;2023-03-21T19:53:29;18.60;59.70
53286;DHT22;39171;45.550;12.074;2023-03-21T19:59:30;18.60;59.70
53286;DHT22;39171;45.550;12.074;2023-03-21T20:05:32;18.50;60.10
53286;DHT22;39171;45.550;12.074;2023-03-21T20:11:33;18.60;60.00
53286;DHT22;39171;45.550;12.074;2023-03-21T20:17:34;18.50;60.30
53286;DHT22;39171;45.550;12.074;2023-03-21T20:23:35;18.50;60.30
53286;DHT22;39171;45.550;12.074;2023-03-21T20:29:38;18.50;60.60
53286;DHT22;39171;45.550;12.074;2023-03-21T20:35:40;18.50;60.70
53286;DHT22;39171;45.550;12.074;2023-03-21T20:41:41;18.50;60.90
53286;DHT22;39171;45.550;12.074;2023-03-21T20:47:43;18.50;61.00
53286;DHT22;39171;45.550;12.074;2023-03-21T20:53:45;18.50;61.10
53286;DHT22;39171;45.550;12.074;2023-03-21T20:59:46;18.40;61.10
53286;DHT22;39171;45.550;12.074;2023-03-21T21:05:47;18.40;61.40
53286;DHT22;39171;45.550;12.074;2023-03-21T21:11:49;18.40;61.50
53286;DHT22;39171;45.550;12.074;2023-03-21T21:17:50;18.40;61.60
53286;DHT22;39171;45.550;12.074;2023-03-21T21:23:52;18.40;61.70
53286;DHT22;39171;45.550;12.074;2023-03-21T21:29:54;18.40;61.70
53286;DHT22;39171;45.550;12.074;2023-03-21T21:35:55;18.30;61.80
53286;DHT22;39171;45.550;12.074;2023-03-21T21:41:56;18.30;62.00
53286;DHT22;39171;45.550;12.074;2023-03-21T21:47:57;18.30;62.10
53286;DHT22;39171;45.550;12.074;2023-03-21T21:53:59;18.30;62.20
53286;DHT22;39171;45.550;12.074;2023-03-21T22:00:03;18.30;62.40
53286;DHT22;39171;45.550;12.074;2023-03-21T22:06:12;18.30;62.50
53286;DHT22;39171;45.550;12.074;2023-03-21T22:12:14;18.20;62.60
53286;DHT22;39171;45.550;12.074;2023-03-21T22:18:17;18.20;62.80
53286;DHT22;39171;45.550;12.074;2023-03-21T22:24:18;18.20;62.90
53286;DHT22;39171;45.550;12.074;2023-03-21T22:30:20;18.20;63.00
53286;DHT22;39171;45.550;12.074;2023-03-21T22:36:21;18.20;63.20
53286;DHT22;39171;45.550;12.074;2023-03-21T22:42:22;18.20;63.30
53286;DHT22;39171;45.550;12.074;2023-03-21T22:48:23;18.20;63.50
53286;DHT22;39171;45.550;12.074;2023-03-21T22:54:25;18.20;63.60
53286;DHT22;39171;45.550;12.074;2023-03-21T23:00:26;18.10;63.70
53286;DHT22;39171;45.550;12.074;2023-03-21T23:06:28;18.10;63.80
53286;DHT22;39171;45.550;12.074;2023-03-21T23:12:29;18.10;63.90
53286;DHT22;39171;45.550;12.074;2023-03-21T23:18:31;18.00;64.10
53286;DHT22;39171;45.550;12.074;2023-03-21T23:24:33;18.00;64.20
53286;DHT22;39171;45.550;12.074;2023-03-21T23:30:36;18.00;64.30
53286;DHT22;39171;45.550;12.074;2023-03-21T23:36:37;18.00;64.40
53286;DHT22;39171;45.550;12.074;2023-03-21T23:42:39;18.00;64.50
53286;DHT22;39171;45.550;12.074;2023-03-21T23:48:41;17.90;64.60
53286;DHT22;39171;45.550;12.074;2023-03-21T23:54:42;17.90;64.70
